Time;durP1;ratioP1;P1;durP2;ratioP2;P2;SDS_P1;SDS_P2;PMS_P1;PMS_P2;Temp;Humidity;BMP_temperature;BMP_pressure;BME280_temperature;BME280_humidity;BME280_pressure;Samples;Min_cycle;Max_cycle;Signal;HPM_P1;HPM_P2
2022/05/18 00:00:42;;;;;;;2.83;1.27;;;;;;;22.70;49.60;101869.22;5078428;28;20025;-56
2022/05/18 00:03:10;;;;;;;1.90;0.98;;;;;;;22.70;49.48;101870.06;5081577;28;20118;-55
2022/05/18 00:05:38;;;;;;;2.50;1.45;;;;;;;22.69;49.49;101860.25;5082235;28;20032;-54
2022/05/18 00:08:05;;;;;;;3.13;1.08;;;;;;;22.69;49.70;101862.94;5085285;28;20488;-57
2022/05/18 00:10:31;;;;;;;2.50;1.35;;;;;;;22.68;49.63;101854.97;5077890;28;20031;-57
2022/05/18 00:12:56;;;;;;;1.85;1.27;;;;;;;22.69;49.79;101862.94;5085168;28;20028;-57
2022/05/18 00:15:23;;;;;;;3.03;1.30;;;;;;;22.67;49.45;101867.69;5085813;28;20097;-56
2022/05/18 00:17:48;;;;;;;1.92;1.08;;;;;;;22.68;49.21;101871.22;5084517;28;20020;-55
2022/05/18 00:20:14;;;;;;;1.75;1.10;;;;;;;22.62;49.53;101863.78;5085983;28;20677;-56
2022/05/18 00:22:43;;;;;;;2.60;1.10;;;;;;;22.66;49.44;101874.13;5079010;28;20066;-57
2022/05/18 00:25:09;;;;;;;1.70;1.17;;;;;;;22.66;49.41;101871.41;5077785;28;20077;-54
2022/05/18 00:27:34;;;;;;;2.25;1.10;;;;;;;22.66;49.58;101874.13;5077558;28;20032;-55
2022/05/18 00:29:59;;;;;;;1.77;1.13;;;;;;;22.64;49.33;101869.88;5085123;28;20067;-57
2022/05/18 00:32:24;;;;;;;2.40;1.42;;;;;;;22.65;49.57;101875.16;5084766;28;20029;-57
2022/05/18 00:34:49;;;;;;;1.75;1.30;;;;;;;22.64;49.35;101873.47;5083965;28;20032;-53
2022/05/18 00:37:15;;;;;;;1.40;1.20;;;;;;;22.64;49.60;101873.47;5083973;28;20035;-58
2022/05/18 00:39:40;;;;;;;2.83;1.50;;;;;;;22.60;49.51;101863.09;5077080;28;20043;-56
2022/05/18 00:42:05;;;;;;;1.27;1.00;;;;;;;22.61;49.44;101864.81;5076915;28;20103;-57
2022/05/18 00:44:30;;;;;;;2.17;1.50;;;;;;;22.63;49.52;101865.47;5080967;28;20050;-55
2022/05/18 00:46:56;;;;;;;1.88;1.33;;;;;;;22.64;49.61;101862.63;5082220;28;20025;-54
2022/05/18 00:49:21;;;;;;;2.80;1.30;;;;;;;22.62;49.53;101863.78;5073395;28;20059;-57
2022/05/18 00:51:53;;;;;;;2.25;1.23;;;;;;;22.63;49.78;101860.06;5072910;28;20049;-56
2022/05/18 00:54:25;;;;;;;1.83;1.10;;;;;;;22.62;49.61;101867.34;5083611;28;20071;-58
2022/05/18 00:56:54;;;;;;;1.73;1.33;;;;;;;22.61;49.56;101871.09;5083236;28;20033;-57
2022/05/18 00:59:24;;;;;;;3.13;1.20;;;;;;;22.60;49.47;101872.09;5088222;28;20028;-56
2022/05/18 01:01:50;;;;;;;1.75;1.50;;;;;;;22.61;49.61;101867.53;5075703;28;20075;-57
2022/05/18 01:04:16;;;;;;;1.88;1.23;;;;;;;22.59;49.68;101866.84;5083847;28;20020;-56
2022/05/18 01:06:48;;;;;;;1.92;1.35;;;;;;;22.61;49.74;101875.66;5084635;28;20035;-54
2022/05/18 01:09:23;;;;;;;3.22;1.20;;;;;;;22.60;49.87;101873.94;5073203;28;20028;-57
2022/05/18 01:11:48;;;;;;;2.83;1.55;;;;;;;22.58;49.76;101867.84;5079770;28;20052;-56
2022/05/18 01:14:21;;;;;;;1.83;1.45;;;;;;;22.59;49.85;101866.84;5073527;28;20547;-56
2022/05/18 01:16:47;;;;;;;1.70;1.40;;;;;;;22.58;49.42;101867.84;5081896;28;20032;-57
2022/05/18 01:19:20;;;;;;;1.58;1.30;;;;;;;22.57;49.59;101867.03;5075684;28;20039;-55
2022/05/18 01:21:54;;;;;;;2.15;1.42;;;;;;;22.57;49.71;101867.03;5067043;28;20496;-54
2022/05/18 01:24:28;;;;;;;1.83;1.30;;;;;;;22.49;49.79;101869.72;5063744;28;20051;-56
2022/05/18 01:26:55;;;;;;;4.00;1.98;;;;;;;22.56;49.63;101876.16;5070880;28;20020;-54
2022/05/18 01:29:21;;;;;;;1.92;1.17;;;;;;;22.57;49.77;101872.44;5083008;28;20028;-56
2022/05/18 01:31:59;;;;;;;2.20;1.67;;;;;;;22.55;49.54;101868.19;5082193;28;20028;-56
2022/05/18 01:34:27;;;;;;;2.40;1.42;;;;;;;22.56;49.76;101872.63;5084612;28;20017;-53
2022/05/18 01:36:53;;;;;;;2.00;1.65;;;;;;;22.56;49.57;101875.34;5083929;28;20123;-57
2022/05/18 01:39:23;;;;;;;2.67;1.60;;;;;;;22.55;49.89;101871.75;5080495;28;20044;-56
2022/05/18 01:42:06;;;;;;;3.40;1.85;;;;;;;22.55;49.78;101863.63;5079263;28;20029;-55
2022/05/18 01:44:34;;;;;;;2.17;1.70;;;;;;;22.55;49.65;101868.19;5077953;28;20046;-55
2022/05/18 01:46:59;;;;;;;2.20;1.48;;;;;;;22.54;49.68;101866.50;5082798;28;20024;-56
2022/05/18 01:49:24;;;;;;;2.22;1.40;;;;;;;22.54;49.32;101870.06;5084249;28;20034;-57
2022/05/18 01:51:52;;;;;;;2.10;1.27;;;;;;;22.53;49.59;101875.66;5083918;28;20032;-55
2022/05/18 01:54:17;;;;;;;2.38;1.60;;;;;;;22.54;49.53;101863.78;5083930;28;20044;-55
2022/05/18 01:56:43;;;;;;;1.88;1.20;;;;;;;22.53;49.90;101868.38;5076138;28;20064;-55
2022/05/18 01:59:09;;;;;;;1.80;1.70;;;;;;;22.53;49.52;101862.09;5072296;28;20058;-55
2022/05/18 02:01:35;;;;;;;2.13;1.35;;;;;;;22.53;49.59;101870.25;5076372;28;20063;-56
2022/05/18 02:04:00;;;;;;;2.22;1.35;;;;;;;22.52;49.77;101863.13;5083780;28;20040;-53
2022/05/18 02:06:25;;;;;;;1.83;1.17;;;;;;;22.51;49.37;101864.97;5075494;28;20025;-55
2022/05/18 02:08:51;;;;;;;1.55;1.20;;;;;;;22.51;49.44;101861.41;5074179;28;20104;-55
2022/05/18 02:11:19;;;;;;;2.78;1.90;;;;;;;22.52;49.68;101868.56;5083452;28;20024;-55
2022/05/18 02:13:44;;;;;;;2.83;1.40;;;;;;;22.51;49.50;101870.38;5076802;28;20123;-55
2022/05/18 02:16:10;;;;;;;3.10;1.73;;;;;;;22.50;49.38;101876.00;5071688;28;20036;-52
2022/05/18 02:18:36;;;;;;;2.08;1.50;;;;;;;22.50;49.58;101870.56;5082790;28;20024;-54
2022/05/18 02:21:03;;;;;;;1.52;1.02;;;;;;;22.48;49.15;101868.03;5083637;28;20067;-55
2022/05/18 02:23:28;;;;;;;2.60;1.30;;;;;;;22.49;49.27;101869.72;5083177;28;20024;-54
2022/05/18 02:25:54;;;;;;;1.45;1.02;;;;;;;22.49;49.26;101861.59;5083337;28;20035;-55
2022/05/18 02:28:19;;;;;;;2.17;1.27;;;;;;;22.48;49.38;101873.47;5082914;28;20059;-54
2022/05/18 02:30:44;;;;;;;3.13;1.55;;;;;;;22.48;49.50;101862.63;5081803;28;20062;-55
2022/05/18 02:33:09;;;;;;;2.45;1.65;;;;;;;22.48;49.15;101869.91;5082329;28;20025;-53
2022/05/18 02:35:36;;;;;;;2.13;1.15;;;;;;;22.46;49.20;101870.91;5083059;28;20036;-50
2022/05/18 02:38:02;;;;;;;1.77;1.48;;;;;;;22.46;49.58;101870.91;5083163;28;20032;-56
2022/05/18 02:40:27;;;;;;;1.92;1.38;;;;;;;22.42;49.30;101869.53;5074733;28;20043;-54
2022/05/18 02:42:52;;;;;;;1.20;1.08;;;;;;;22.46;49.22;101875.47;5082892;28;20020;-53
2022/05/18 02:45:18;;;;;;;1.60;1.50;;;;;;;22.45;49.13;101871.91;5082654;28;20108;-51
2022/05/18 02:47:43;;;;;;;1.52;1.30;;;;;;;22.44;48.96;101870.22;5082166;28;20124;-51
2022/05/18 02:50:08;;;;;;;2.38;1.40;;;;;;;22.45;49.06;101868.38;5078775;28;20603;-50
2022/05/18 02:52:35;;;;;;;1.52;1.13;;;;;;;22.45;49.40;101863.78;5077928;28;20048;-50
2022/05/18 02:57:45;;;;;;;2.95;1.40;;;;;;;22.44;49.47;101861.25;5074506;28;20074;-55
2022/05/18 03:00:11;;;;;;;2.47;1.58;;;;;;;22.43;49.30;101863.13;5082671;28;20029;-52
2022/05/18 03:02:36;;;;;;;2.58;1.55;;;;;;;22.39;49.19;101860.94;5081825;28;20473;-52
2022/05/18 03:05:01;;;;;;;2.17;1.27;;;;;;;22.43;49.60;101871.25;5082872;28;20028;-54
2022/05/18 03:07:27;;;;;;;2.00;1.20;;;;;;;22.41;49.10;101865.16;5082795;28;20028;-55
2022/05/18 03:09:52;;;;;;;2.50;1.63;;;;;;;22.41;49.37;101865.16;5082014;28;20082;-56
2022/05/18 03:12:17;;;;;;;1.63;1.48;;;;;;;22.41;49.40;101862.44;5073736;28;20059;-56
2022/05/18 03:14:42;;;;;;;2.42;1.60;;;;;;;22.41;49.12;101867.00;5082856;28;20062;-56
2022/05/18 03:17:08;;;;;;;1.80;1.63;;;;;;;22.40;49.16;101863.47;5081720;28;20051;-57
2022/05/18 03:19:33;;;;;;;1.88;1.40;;;;;;;22.40;49.47;101860.75;5082999;28;20598;-56
2022/05/18 03:24:42;;;;;;;2.10;1.48;;;;;;;22.39;49.32;101872.59;5075671;28;20125;-54
2022/05/18 03:27:09;;;;;;;2.45;1.45;;;;;;;22.38;49.24;101862.75;5082777;28;20028;-50
2022/05/18 03:29:34;;;;;;;2.25;1.60;;;;;;;22.32;49.35;101859.91;5082486;28;20028;-56
2022/05/18 03:31:59;;;;;;;1.50;1.38;;;;;;;22.38;49.42;101878.19;5073358;28;20032;-55
2022/05/18 03:34:24;;;;;;;1.33;1.13;;;;;;;22.35;49.45;101870.41;5082550;28;20044;-54
2022/05/18 03:36:50;;;;;;;1.77;1.45;;;;;;;22.37;49.30;101880.03;5082541;28;20028;-55
2022/05/18 03:39:15;;;;;;;1.95;1.48;;;;;;;22.32;49.41;101877.00;5075922;28;20075;-55
2022/05/18 03:41:40;;;;;;;2.10;1.50;;;;;;;22.27;49.10;101868.53;5080009;28;20021;-54
2022/05/18 03:44:07;;;;;;;1.67;1.40;;;;;;;22.35;49.49;101883.94;5086663;28;20036;-54
2022/05/18 03:46:32;;;;;;;2.35;1.48;;;;;;;22.34;49.18;101883.06;5077097;28;20088;-54
2022/05/18 03:48:59;;;;;;;1.45;1.25;;;;;;;22.34;49.35;101891.22;5075174;28;20079;-53
2022/05/18 03:51:24;;;;;;;2.05;1.35;;;;;;;22.28;49.31;101880.22;5081087;28;20446;-53
2022/05/18 03:53:49;;;;;;;2.50;1.35;;;;;;;22.33;49.28;101891.38;5077809;28;20488;-54
2022/05/18 03:56:15;;;;;;;1.80;1.40;;;;;;;22.33;49.15;101897.66;5084955;28;20066;-51
2022/05/18 03:58:41;;;;;;;1.85;1.48;;;;;;;22.33;49.17;101892.22;5086366;28;20020;-53
2022/05/18 04:01:10;;;;;;;2.50;1.70;;;;;;;22.33;49.28;101897.66;5081522;28;20031;-55
2022/05/18 04:03:40;;;;;;;1.90;1.42;;;;;;;22.33;49.26;101903.06;5074528;28;20055;-57
2022/05/18 04:06:06;;;;;;;2.45;1.33;;;;;;;22.29;49.31;101899.00;5084311;28;20031;-53
2022/05/18 04:08:31;;;;;;;2.00;1.38;;;;;;;22.32;49.21;101906.81;5085750;28;20463;-54
2022/05/18 04:10:57;;;;;;;1.60;1.20;;;;;;;22.32;49.22;101901.38;5083402;28;20088;-53
2022/05/18 04:13:25;;;;;;;2.13;1.48;;;;;;;22.32;49.02;101903.25;5085499;28;20048;-54
2022/05/18 04:15:52;;;;;;;4.20;1.40;;;;;;;22.32;48.98;101911.38;5085683;28;20072;-55
2022/05/18 04:18:18;;;;;;;16.52;2.53;;;;;;;22.33;49.23;101913.06;5082575;28;20062;-57
2022/05/18 04:20:43;;;;;;;6.65;2.95;;;;;;;22.32;49.21;101912.22;5085019;28;20651;-55
2022/05/18 04:23:11;;;;;;;3.95;2.50;;;;;;;22.32;49.70;101911.38;5084994;28;20016;-56
2022/05/18 04:25:36;;;;;;;3.35;1.70;;;;;;;22.32;49.56;101911.38;5085233;28;20024;-56
2022/05/18 04:28:03;;;;;;;3.38;1.63;;;;;;;22.31;49.67;101907.81;5079028;28;20025;-57
2022/05/18 04:30:28;;;;;;;3.15;1.85;;;;;;;22.26;49.70;101899.34;5083501;28;20432;-54
2022/05/18 04:32:54;;;;;;;3.25;2.20;;;;;;;22.25;49.68;101900.34;5076910;28;20099;-57
2022/05/18 04:35:22;;;;;;;3.00;1.85;;;;;;;22.29;49.80;101909.84;5085504;28;20020;-56
2022/05/18 04:37:47;;;;;;;4.88;2.15;;;;;;;22.30;49.55;101906.13;5084641;28;20025;-56
2022/05/18 04:40:13;;;;;;;3.33;2.45;;;;;;;22.29;49.61;101909.84;5085081;28;20029;-57
2022/05/18 04:42:38;;;;;;;2.63;1.80;;;;;;;22.29;49.55;101903.56;5084469;28;20028;-56
2022/05/18 04:45:07;;;;;;;2.60;2.20;;;;;;;22.27;49.57;101911.03;5084480;28;20035;-57
2022/05/18 04:47:33;;;;;;;;;;;;;;;22.29;49.73;101915.25;5083817;28;20020;-54
2022/05/18 04:49:58;;;;;;;2.03;1.83;;;;;;;22.30;49.38;101916.09;5084655;28;19940;-55
2022/05/18 04:52:23;;;;;;;3.90;1.95;;;;;;;22.29;49.61;101923.38;5073641;28;20306;-57
2022/05/18 04:54:49;;;;;;;1.88;1.52;;;;;;;22.28;49.80;101923.56;5080816;28;20052;-54
2022/05/18 04:57:15;;;;;;;2.25;1.63;;;;;;;22.28;49.88;101923.56;5084498;28;20087;-56
2022/05/18 04:59:40;;;;;;;2.25;1.70;;;;;;;22.28;49.55;101927.13;5084180;28;20033;-56
2022/05/18 05:02:06;;;;;;;2.63;1.75;;;;;;;22.29;49.80;101933.38;5083365;28;20027;-55
2022/05/18 05:04:32;;;;;;;3.38;1.80;;;;;;;22.28;49.80;101935.25;5083902;28;20044;-55
2022/05/18 05:06:57;;;;;;;3.22;2.10;;;;;;;22.27;50.05;101930.00;5079207;28;20025;-57
2022/05/18 05:09:24;;;;;;;3.67;2.30;;;;;;;22.29;49.64;101936.94;5081638;28;20637;-53
2022/05/18 05:11:50;;;;;;;1.92;1.70;;;;;;;22.30;49.61;101937.78;5077280;28;20067;-55
2022/05/18 05:14:15;;;;;;;2.45;1.92;;;;;;;22.30;49.87;101943.19;5084502;28;20040;-56
2022/05/18 05:16:41;;;;;;;4.13;1.85;;;;;;;22.30;49.90;101945.91;5083625;28;20036;-57
2022/05/18 05:19:06;;;;;;;2.35;1.50;;;;;;;22.30;49.69;101946.78;5083459;28;20021;-57
2022/05/18 05:21:31;;;;;;;2.58;1.70;;;;;;;22.16;49.86;101925.72;5084404;28;20048;-56
2022/05/18 05:23:56;;;;;;;2.88;1.92;;;;;;;22.31;49.50;101948.47;5084479;28;20077;-57
2022/05/18 05:26:22;;;;;;;2.53;1.60;;;;;;;22.32;49.49;101955.56;5083904;28;20020;-57
2022/05/18 05:28:47;;;;;;;1.77;1.40;;;;;;;22.33;49.77;101954.53;5084516;28;20043;-57
2022/05/18 05:31:12;;;;;;;2.40;1.38;;;;;;;22.31;49.43;101959.31;5083825;28;20036;-56
2022/05/18 05:33:39;;;;;;;1.55;1.30;;;;;;;22.35;49.44;101966.09;5084755;28;20037;-56
2022/05/18 05:36:05;;;;;;;1.65;1.40;;;;;;;22.36;49.62;101958.81;5083915;28;20028;-57
2022/05/18 05:38:31;;;;;;;2.33;1.90;;;;;;;22.36;49.95;101958.81;5084438;28;20031;-51
2022/05/18 05:40:58;;;;;;;2.05;1.50;;;;;;;22.36;49.89;101959.66;5084418;28;20319;-55
2022/05/18 05:43:23;;;;;;;2.55;1.60;;;;;;;22.36;49.65;101946.09;5083184;28;20016;-57
2022/05/18 05:45:59;;;;;;;2.33;1.70;;;;;;;22.37;49.95;101947.78;5084242;28;20028;-55
2022/05/18 05:48:25;;;;;;;3.15;1.50;;;;;;;22.37;49.65;101949.66;5083897;28;20079;-56
2022/05/18 05:50:50;;;;;;;2.30;1.95;;;;;;;22.36;49.87;101950.66;5084243;28;20066;-54
2022/05/18 05:53:15;;;;;;;1.92;1.70;;;;;;;22.36;50.06;101962.34;5083820;28;20641;-56
2022/05/18 05:55:41;;;;;;;2.85;1.63;;;;;;;22.36;49.76;101956.09;5084092;28;20497;-55
2022/05/18 05:58:06;;;;;;;3.13;1.90;;;;;;;22.36;50.07;101954.22;5083691;28;20032;-56
2022/05/18 06:00:31;;;;;;;3.33;1.98;;;;;;;22.36;49.87;101948.81;5083393;28;20043;-54
2022/05/18 06:02:57;;;;;;;2.65;1.50;;;;;;;22.36;49.82;101946.09;5082804;28;20035;-56
2022/05/18 06:05:22;;;;;;;2.70;1.63;;;;;;;22.32;49.68;101950.16;5083934;28;20012;-55
2022/05/18 06:07:48;;;;;;;1.90;1.52;;;;;;;22.34;49.81;101948.09;5070551;28;20029;-55
2022/05/18 06:10:13;;;;;;;2.17;1.58;;;;;;;22.36;49.63;101967.78;5084311;28;20031;-57
2022/05/18 06:12:38;;;;;;;2.30;1.50;;;;;;;22.36;49.77;101954.22;5083798;28;20428;-55
2022/05/18 06:15:06;;;;;;;2.75;1.58;;;;;;;22.35;49.69;101960.66;5066076;28;20112;-56
2022/05/18 06:17:31;;;;;;;2.10;1.70;;;;;;;22.35;49.63;101963.38;5062021;28;20028;-53
2022/05/18 06:19:56;;;;;;;2.88;1.90;;;;;;;22.36;49.54;101956.09;5064098;28;20024;-55
2022/05/18 06:22:21;;;;;;;2.58;1.60;;;;;;;22.36;49.70;101962.34;5064040;28;20041;-57
2022/05/18 06:24:49;;;;;;;1.83;1.30;;;;;;;22.36;49.44;101962.34;5063770;28;20028;-53
2022/05/18 06:27:15;;;;;;;1.80;1.30;;;;;;;22.37;49.06;101965.91;5081161;28;20063;-56
2022/05/18 06:29:40;;;;;;;1.70;1.30;;;;;;;22.33;49.11;101953.69;5067902;28;20395;-55
2022/05/18 06:32:06;;;;;;;1.50;1.20;;;;;;;22.37;49.36;101964.03;5077046;28;20036;-54
2022/05/18 06:34:31;;;;;;;1.77;1.27;;;;;;;22.38;49.27;101967.59;5079130;28;20039;-54
2022/05/18 06:36:56;;;;;;;1.42;1.20;;;;;;;22.38;49.49;101968.44;5076678;28;20033;-56
2022/05/18 06:39:21;;;;;;;1.90;1.38;;;;;;;22.39;49.12;101975.56;5077167;28;20027;-57
2022/05/18 06:41:47;;;;;;;1.30;0.98;;;;;;;22.38;49.13;101970.31;5074354;28;20020;-59
2022/05/18 06:44:13;;;;;;;2.53;1.17;;;;;;;22.39;49.17;101972.03;5076930;28;20047;-58
2022/05/18 06:46:39;;;;;;;1.75;1.38;;;;;;;22.36;49.24;101970.47;5074059;28;20111;-58
2022/05/18 06:49:06;;;;;;;1.60;1.15;;;;;;;22.37;49.38;101974.03;5075378;28;20105;-57
2022/05/18 06:51:34;;;;;;;2.22;1.67;;;;;;;22.35;49.15;101976.91;5082645;28;20496;-56
2022/05/18 06:54:00;;;;;;;2.97;1.30;;;;;;;22.33;49.04;101981.63;5082811;28;20493;-53
2022/05/18 06:56:28;;;;;;;2.75;1.27;;;;;;;22.34;48.92;101974.34;5074271;28;20046;-55
2022/05/18 06:58:53;;;;;;;2.10;1.50;;;;;;;22.29;49.14;101976.72;5083186;28;20044;-53
2022/05/18 07:01:19;;;;;;;1.77;1.30;;;;;;;22.32;49.09;101985.38;5073563;28;20041;-57
2022/05/18 07:03:45;;;;;;;2.15;1.25;;;;;;;22.32;48.98;101984.53;5074824;28;20036;-52
2022/05/18 07:06:12;;;;;;;1.73;1.20;;;;;;;22.32;48.86;101979.09;5074803;28;20495;-51
2022/05/18 07:08:38;;;;;;;1.80;1.30;;;;;;;22.31;49.21;101972.84;5074554;28;20048;-56
2022/05/18 07:11:04;;;;;;;1.58;1.40;;;;;;;22.26;48.83;101966.19;5082668;28;20036;-54
2022/05/18 07:13:34;;;;;;;1.98;1.20;;;;;;;22.30;48.94;101973.88;5074120;28;20025;-55
2022/05/18 07:15:59;;;;;;;1.83;1.25;;;;;;;22.30;48.93;101975.69;5082419;28;20028;-56
2022/05/18 07:18:29;;;;;;;1.50;1.40;;;;;;;22.30;48.87;101978.41;5085877;28;20092;-51
2022/05/18 07:20:56;;;;;;;2.58;1.35;;;;;;;22.30;48.97;101975.69;5086425;28;20063;-53
2022/05/18 07:23:21;;;;;;;1.98;1.50;;;;;;;22.29;48.69;101980.28;5079067;28;20084;-56
2022/05/18 07:25:46;;;;;;;1.83;1.50;;;;;;;22.30;48.84;101981.13;5078854;28;20039;-55
2022/05/18 07:28:12;;;;;;;1.77;1.40;;;;;;;22.25;48.93;101973.50;5086413;28;20043;-56
2022/05/18 07:30:37;;;;;;;1.83;1.40;;;;;;;22.26;48.79;101977.91;5078481;28;20035;-56
2022/05/18 07:33:03;;;;;;;2.55;1.15;;;;;;;22.29;48.69;101980.28;5085887;28;20473;-55
2022/05/18 07:35:28;;;;;;;1.52;1.33;;;;;;;22.29;48.68;101974.84;5075717;28;20029;-55
2022/05/18 07:37:54;;;;;;;1.73;1.30;;;;;;;22.28;48.88;101981.28;5078000;28;20037;-55
2022/05/18 07:40:19;;;;;;;1.77;1.38;;;;;;;22.29;48.79;101982.13;5079933;28;20081;-55
2022/05/18 07:42:45;;;;;;;1.55;1.20;;;;;;;22.28;48.79;101984.00;5074973;28;20591;-55
2022/05/18 07:45:10;;;;;;;1.92;1.30;;;;;;;22.27;48.67;101995.88;5086358;28;20028;-55
2022/05/18 07:47:35;;;;;;;1.42;1.20;;;;;;;22.28;48.80;101994.00;5085169;28;20070;-53
2022/05/18 07:50:00;;;;;;;1.83;1.20;;;;;;;22.25;48.76;101995.16;5083097;28;20033;-53
2022/05/18 07:52:26;;;;;;;2.30;1.20;;;;;;;22.27;48.70;101998.56;5075040;28;20029;-57
2022/05/18 07:54:51;;;;;;;1.83;1.20;;;;;;;22.27;48.46;101998.56;5076386;28;20128;-56
2022/05/18 07:57:17;;;;;;;2.05;1.30;;;;;;;22.27;48.69;102005.84;5086257;28;20048;-57
2022/05/18 07:59:43;;;;;;;2.75;1.27;;;;;;;22.27;48.56;102009.41;5085582;28;20032;-55
2022/05/18 08:02:08;;;;;;;1.15;1.00;;;;;;;22.28;48.54;102005.69;5077375;28;20042;-57
2022/05/18 08:04:33;;;;;;;2.35;1.15;;;;;;;22.27;48.56;102006.69;5086354;28;20555;-57
2022/05/18 08:06:58;;;;;;;3.55;1.30;;;;;;;22.28;48.35;102012.97;5085529;28;20032;-57
2022/05/18 08:09:24;;;;;;;1.30;1.08;;;;;;;22.27;48.59;102027.53;5085939;28;20025;-56
2022/05/18 08:17:18;;;;;;;2.55;1.42;;;;;;;22.27;48.37;102028.38;5085042;28;20070;-55
2022/05/18 08:19:44;;;;;;;1.30;1.00;;;;;;;22.27;48.42;102027.53;5085693;28;20036;-55
2022/05/18 08:22:09;;;;;;;1.33;1.08;;;;;;;22.27;48.31;102025.66;5077799;28;20032;-54
2022/05/18 08:24:36;;;;;;;2.72;1.42;;;;;;;22.24;48.28;102015.16;5079092;28;20090;-56
2022/05/18 08:27:08;;;;;;;1.73;1.23;;;;;;;22.26;48.25;102021.25;5083892;28;20032;-57
2022/05/18 08:29:35;;;;;;;1.38;1.27;;;;;;;22.27;48.20;102025.66;5068285;28;20033;-56
2022/05/18 08:32:00;;;;;;;1.90;1.00;;;;;;;22.28;48.43;102027.34;5082239;28;20516;-57
2022/05/18 08:34:26;;;;;;;2.67;1.30;;;;;;;22.22;48.28;102014.47;5085686;28;20032;-58
2022/05/18 08:36:51;;;;;;;1.60;1.25;;;;;;;22.28;48.17;102032.78;5085264;28;20047;-56
2022/05/18 08:39:16;;;;;;;1.77;1.27;;;;;;;22.29;48.36;102025.50;5081660;28;20113;-56
2022/05/18 08:41:46;;;;;;;1.60;1.27;;;;;;;22.28;48.28;102035.47;5081002;28;20092;-55
2022/05/18 08:44:23;;;;;;;1.75;1.10;;;;;;;22.29;48.26;102031.75;5081987;28;20092;-56
2022/05/18 08:47:05;;;;;;;1.95;1.50;;;;;;;22.29;48.44;102034.47;5084551;28;20028;-56
2022/05/18 08:49:51;;;;;;;1.15;1.00;;;;;;;22.30;48.21;102024.47;5073870;28;20037;-56
2022/05/18 08:52:20;;;;;;;1.80;1.30;;;;;;;22.29;48.28;102029.03;5075490;28;20025;-56
2022/05/18 08:54:56;;;;;;;1.90;1.40;;;;;;;22.29;48.12;102020.06;5083810;28;20087;-55
2022/05/18 08:57:28;;;;;;;1.60;1.27;;;;;;;22.29;48.15;102020.91;5077234;28;20039;-57
2022/05/18 08:59:58;;;;;;;1.85;1.08;;;;;;;22.28;48.38;102027.34;5073430;28;20025;-55
2022/05/18 09:02:28;;;;;;;2.03;1.55;;;;;;;22.26;48.15;102020.38;5075256;28;20036;-55
2022/05/18 09:05:01;;;;;;;1.27;1.10;;;;;;;22.24;48.44;102011.59;5085568;28;20090;-56
2022/05/18 09:07:33;;;;;;;1.58;1.23;;;;;;;22.30;48.05;102030.75;5072275;28;20029;-55
2022/05/18 09:10:12;;;;;;;1.83;1.33;;;;;;;22.30;48.30;102032.59;5081431;28;20111;-57
2022/05/18 09:12:42;;;;;;;1.60;1.10;;;;;;;22.30;48.22;102028.06;5069804;28;20032;-55
2022/05/18 09:15:10;;;;;;;1.58;1.25;;;;;;;22.30;48.27;102030.75;5074453;28;20052;-54
2022/05/18 09:17:53;;;;;;;1.35;1.08;;;;;;;22.32;48.10;102036.00;5083758;28;20563;-55
2022/05/18 09:20:21;;;;;;;1.73;1.40;;;;;;;22.32;48.31;102036.00;5081752;28;20557;-56
2022/05/18 09:23:08;;;;;;;1.80;1.13;;;;;;;22.32;48.21;102028.72;5079588;28;20031;-54
2022/05/18 09:25:51;;;;;;;1.60;1.10;;;;;;;22.32;48.28;102034.16;5077617;28;20035;-56
2022/05/18 09:28:41;;;;;;;1.20;1.00;;;;;;;22.32;47.92;102038.72;5083851;28;20050;-56
2022/05/18 09:31:10;;;;;;;1.60;1.20;;;;;;;22.33;48.26;102037.69;5083819;28;20055;-55
2022/05/18 09:33:43;;;;;;;1.35;1.20;;;;;;;22.33;47.96;102033.13;5072427;28;20082;-54
2022/05/18 09:36:20;;;;;;;1.60;1.15;;;;;;;22.33;48.19;102037.69;5066119;28;20104;-55
2022/05/18 09:38:59;;;;;;;1.25;1.13;;;;;;;22.28;48.06;102029.22;5067756;28;20171;-58
2022/05/18 09:41:28;;;;;;;1.35;1.20;;;;;;;22.33;47.86;102038.53;5074138;28;20048;-54
2022/05/18 09:44:16;;;;;;;2.22;1.65;;;;;;;22.34;48.31;102042.09;5076854;28;20162;-55
2022/05/18 09:46:42;;;;;;;2.17;1.55;;;;;;;22.35;48.24;102041.09;5082140;28;20070;-59
2022/05/18 09:49:19;;;;;;;3.08;1.30;;;;;;;22.35;48.33;102041.09;5079739;28;20440;-58
2022/05/18 09:51:45;;;;;;;1.80;1.10;;;;;;;22.35;48.07;102044.66;5076166;28;20117;-58
2022/05/18 09:54:11;;;;;;;1.40;1.08;;;;;;;22.36;48.25;102045.50;5074026;28;20052;-58
2022/05/18 09:56:52;;;;;;;1.58;1.20;;;;;;;22.36;48.24;102037.38;5083624;28;20170;-58
2022/05/18 09:59:21;;;;;;;2.08;1.20;;;;;;;22.38;48.18;102048.88;5081902;28;20042;-57
2022/05/18 10:07:30;;;;;;;1.50;1.38;;;;;;;22.43;48.45;102043.84;5079019;28;20056;-58
2022/05/18 10:10:07;;;;;;;1.98;1.42;;;;;;;22.46;48.10;102048.91;5079294;28;20074;-58
2022/05/18 10:13:07;;;;;;;1.83;1.20;;;;;;;22.49;48.12;102054.00;5072940;28;20067;-58
2022/05/18 10:15:35;;;;;;;2.00;1.42;;;;;;;22.53;48.09;102054.53;5060848;28;20136;-58
2022/05/18 10:18:11;;;;;;;1.90;1.70;;;;;;;22.54;48.09;102045.38;5070310;28;20041;-58
2022/05/18 10:20:38;;;;;;;1.50;1.10;;;;;;;22.54;47.91;102046.22;5075572;28;20132;-57
2022/05/18 10:23:04;;;;;;;1.88;1.30;;;;;;;22.58;47.93;102039.47;5069404;28;20024;-58
2022/05/18 10:25:35;;;;;;;1.30;1.10;;;;;;;22.56;48.00;102033.38;5074665;28;20094;-58
2022/05/18 10:28:20;;;;;;;1.88;1.35;;;;;;;22.61;48.03;102035.59;5069383;28;20036;-59
2022/05/18 10:31:04;;;;;;;1.77;1.23;;;;;;;22.62;47.75;102027.28;5070380;28;20115;-52
2022/05/18 10:33:32;;;;;;;1.52;1.05;;;;;;;22.60;47.98;102025.75;5074954;28;20497;-55
2022/05/18 10:36:16;;;;;;;1.10;1.00;;;;;;;22.67;47.92;102032.19;5071834;28;20028;-55
2022/05/18 10:38:51;;;;;;;1.42;1.23;;;;;;;22.66;47.85;102031.34;5077458;28;20083;-54
2022/05/18 10:41:21;;;;;;;1.77;1.15;;;;;;;22.68;48.04;102031.19;5072896;28;20180;-54
2022/05/18 10:44:20;;;;;;;1.25;1.10;;;;;;;22.67;47.94;102022.19;5074534;28;20021;-55
2022/05/18 10:46:47;;;;;;;1.50;0.90;;;;;;;22.69;48.05;102017.47;5070268;28;20043;-54
2022/05/18 10:49:32;;;;;;;1.73;1.30;;;;;;;22.72;48.12;102016.28;5080528;28;20047;-55
2022/05/18 10:52:19;;;;;;;1.73;1.08;;;;;;;22.73;48.14;102019.88;5078381;28;20032;-55
2022/05/18 10:55:01;;;;;;;1.95;1.05;;;;;;;22.74;47.85;102010.69;5073518;28;20123;-55
2022/05/18 10:57:36;;;;;;;1.90;1.42;;;;;;;22.74;48.07;102010.69;5074599;28;20021;-55
2022/05/18 11:00:20;;;;;;;1.58;1.17;;;;;;;22.75;48.11;102013.25;5079872;28;20113;-51
2022/05/18 11:02:57;;;;;;;1.95;1.67;;;;;;;22.75;48.03;102009.69;5070711;28;20056;-54
2022/05/18 11:05:37;;;;;;;2.60;1.70;;;;;;;22.76;48.09;102004.09;5075383;28;20028;-56
2022/05/18 11:08:08;;;;;;;2.65;1.60;;;;;;;22.77;48.15;101991.38;5073488;28;20032;-56
2022/05/18 11:10:50;;;;;;;1.95;1.75;;;;;;;22.78;48.13;102004.78;5064358;28;20032;-55
2022/05/18 11:13:43;;;;;;;2.25;1.73;;;;;;;22.76;48.23;101986.97;5075718;28;20031;-56
2022/05/18 11:16:09;;;;;;;1.73;1.48;;;;;;;22.79;48.15;101992.91;5070320;28;20035;-57
2022/05/18 11:18:42;;;;;;;1.92;1.40;;;;;;;22.79;48.32;101987.50;5073893;28;20056;-56
2022/05/18 11:21:15;;;;;;;1.55;1.40;;;;;;;22.82;48.44;101997.16;5078501;28;20020;-53
2022/05/18 11:23:54;;;;;;;2.15;1.50;;;;;;;22.83;48.49;101998.84;5073039;28;20040;-56
2022/05/18 11:26:45;;;;;;;2.65;1.73;;;;;;;22.84;48.22;101998.66;5076730;28;20152;-56
2022/05/18 11:29:31;;;;;;;2.00;1.23;;;;;;;22.84;48.30;101995.97;5072112;28;20020;-54
2022/05/18 11:32:09;;;;;;;1.90;1.40;;;;;;;22.85;48.31;101999.50;5062414;28;20757;-57
2022/05/18 11:34:37;;;;;;;2.65;1.40;;;;;;;22.85;48.28;101994.97;5063846;28;20096;-55
2022/05/18 11:37:14;;;;;;;2.10;1.55;;;;;;;22.86;48.25;101993.09;5075056;28;20035;-57
2022/05/18 11:39:48;;;;;;;2.17;1.55;;;;;;;22.87;48.32;102000.22;5073330;28;20040;-55
2022/05/18 11:42:14;;;;;;;2.13;1.73;;;;;;;22.88;48.38;101994.59;5075403;28;20083;-55
2022/05/18 11:44:49;;;;;;;1.90;1.70;;;;;;;22.90;48.32;101991.78;5075157;28;20040;-53
2022/05/18 11:47:31;;;;;;;1.75;1.50;;;;;;;22.90;48.40;101989.91;5078566;28;20029;-56